sensor_id;sensor_type;location;lat;lon;timestamp;temperature;humidity
16767;DHT22;8501;49.926;8.404;2022-12-07T00:01:23;4.50;99.90
16767;DHT22;8501;49.926;8.404;2022-12-07T00:03:51;4.50;99.90
16767;DHT22;8501;49.926;8.404;2022-12-07T00:06:17;4.50;99.90
16767;DHT22;8501;49.926;8.404;2022-12-07T00:08:44;4.50;99.90
16767;DHT22;8501;49.926;8.404;2022-12-07T00:11:20;4.50;99.90
16767;DHT22;8501;49.926;8.404;2022-12-07T00:13:47;4.50;99.90
16767;DHT22;8501;49.926;8.404;2022-12-07T00:16:18;4.50;99.90
16767;DHT22;8501;49.926;8.404;2022-12-07T00:18:44;4.50;99.90
16767;DHT22;8501;49.926;8.404;2022-12-07T00:21:19;4.50;99.90
16767;DHT22;8501;49.926;8.404;2022-12-07T00:23:46;4.50;99.90
16767;DHT22;8501;49.926;8.404;2022-12-07T00:26:15;4.60;99.90
16767;DHT22;8501;49.926;8.404;2022-12-07T00:28:41;4.50;99.90
16767;DHT22;8501;49.926;8.404;2022-12-07T00:31:12;4.50;99.90
16767;DHT22;8501;49.926;8.404;2022-12-07T00:33:38;4.50;99.90
16767;DHT22;8501;49.926;8.404;2022-12-07T00:36:07;4.50;99.90
16767;DHT22;8501;49.926;8.404;2022-12-07T00:38:34;4.50;99.90
16767;DHT22;8501;49.926;8.404;2022-12-07T00:41:02;4.50;99.90
16767;DHT22;8501;49.926;8.404;2022-12-07T00:43:28;4.50;99.90
16767;DHT22;8501;49.926;8.404;2022-12-07T00:45:54;4.50;99.90
16767;DHT22;8501;49.926;8.404;2022-12-07T00:48:23;4.50;99.90
16767;DHT22;8501;49.926;8.404;2022-12-07T00:50:49;4.50;99.90
16767;DHT22;8501;49.926;8.404;2022-12-07T00:53:16;4.50;99.90
16767;DHT22;8501;49.926;8.404;2022-12-07T00:55:42;4.50;99.90
16767;DHT22;8501;49.926;8.404;2022-12-07T00:58:08;4.50;99.90
16767;DHT22;8501;49.926;8.404;2022-12-07T01:00:36;4.40;99.90
16767;DHT22;8501;49.926;8.404;2022-12-07T01:03:02;4.50;99.90
16767;DHT22;8501;49.926;8.404;2022-12-07T01:05:27;4.50;99.90
16767;DHT22;8501;49.926;8.404;2022-12-07T01:07:53;4.50;99.90
16767;DHT22;8501;49.926;8.404;2022-12-07T01:10:18;4.50;99.90
16767;DHT22;8501;49.926;8.404;2022-12-07T01:12:44;4.50;99.90
16767;DHT22;8501;49.926;8.404;2022-12-07T01:15:11;4.40;99.90
16767;DHT22;8501;49.926;8.404;2022-12-07T01:17:36;4.50;99.90
16767;DHT22;8501;49.926;8.404;2022-12-07T01:20:02;4.60;99.90
16767;DHT22;8501;49.926;8.404;2022-12-07T01:22:28;4.60;99.90
16767;DHT22;8501;49.926;8.404;2022-12-07T01:24:54;4.50;99.90
16767;DHT22;8501;49.926;8.404;2022-12-07T01:27:19;4.50;99.90
16767;DHT22;8501;49.926;8.404;2022-12-07T01:29:45;4.50;99.90
16767;DHT22;8501;49.926;8.404;2022-12-07T01:32:10;4.50;99.90
16767;DHT22;8501;49.926;8.404;2022-12-07T01:34:36;4.50;99.90
16767;DHT22;8501;49.926;8.404;2022-12-07T01:37:02;4.50;99.90
16767;DHT22;8501;49.926;8.404;2022-12-07T01:39:27;4.50;99.90
16767;DHT22;8501;49.926;8.404;2022-12-07T01:41:53;4.40;99.90
16767;DHT22;8501;49.926;8.404;2022-12-07T01:44:27;4.50;99.90
16767;DHT22;8501;49.926;8.404;2022-12-07T01:47:00;4.50;99.90
16767;DHT22;8501;49.926;8.404;2022-12-07T01:49:31;4.50;99.90
16767;DHT22;8501;49.926;8.404;2022-12-07T01:52:19;4.40;99.90
16767;DHT22;8501;49.926;8.404;2022-12-07T01:54:48;4.40;99.90
16767;DHT22;8501;49.926;8.404;2022-12-07T01:57:15;4.40;99.90
16767;DHT22;8501;49.926;8.404;2022-12-07T01:59:43;4.40;99.90
16767;DHT22;8501;49.926;8.404;2022-12-07T02:02:16;4.40;99.90
16767;DHT22;8501;49.926;8.404;2022-12-07T02:04:43;4.40;99.90
16767;DHT22;8501;49.926;8.404;2022-12-07T02:07:09;4.40;99.90
16767;DHT22;8501;49.926;8.404;2022-12-07T02:09:34;4.40;99.90
16767;DHT22;8501;49.926;8.404;2022-12-07T02:12:00;4.40;99.90
16767;DHT22;8501;49.926;8.404;2022-12-07T02:14:26;4.40;99.90
16767;DHT22;8501;49.926;8.404;2022-12-07T02:17:37;4.50;99.90
16767;DHT22;8501;49.926;8.404;2022-12-07T02:22:54;4.50;99.90
16767;DHT22;8501;49.926;8.404;2022-12-07T02:28:09;4.50;99.90
16767;DHT22;8501;49.926;8.404;2022-12-07T02:30:42;4.40;99.90
16767;DHT22;8501;49.926;8.404;2022-12-07T02:33:28;4.40;99.90
16767;DHT22;8501;49.926;8.404;2022-12-07T02:36:04;4.40;99.90
16767;DHT22;8501;49.926;8.404;2022-12-07T02:38:37;4.40;99.90
16767;DHT22;8501;49.926;8.404;2022-12-07T02:41:20;4.40;99.90
16767;DHT22;8501;49.926;8.404;2022-12-07T02:44:03;4.40;99.90
16767;DHT22;8501;49.926;8.404;2022-12-07T02:46:34;4.40;99.90
16767;DHT22;8501;49.926;8.404;2022-12-07T02:49:02;4.40;99.90
16767;DHT22;8501;49.926;8.404;2022-12-07T02:51:32;4.50;99.90
16767;DHT22;8501;49.926;8.404;2022-12-07T02:53:59;4.50;99.90
16767;DHT22;8501;49.926;8.404;2022-12-07T02:56:42;4.50;99.90
16767;DHT22;8501;49.926;8.404;2022-12-07T03:13:46;4.40;99.90
16767;DHT22;8501;49.926;8.404;2022-12-07T03:16:20;4.40;99.90
16767;DHT22;8501;49.926;8.404;2022-12-07T03:18:55;4.40;99.90
16767;DHT22;8501;49.926;8.404;2022-12-07T03:21:52;4.40;99.90
16767;DHT22;8501;49.926;8.404;2022-12-07T03:24:22;4.50;99.90
16767;DHT22;8501;49.926;8.404;2022-12-07T03:26:53;4.50;99.90
16767;DHT22;8501;49.926;8.404;2022-12-07T03:29:25;4.40;99.90
16767;DHT22;8501;49.926;8.404;2022-12-07T03:32:00;4.50;99.90
16767;DHT22;8501;49.926;8.404;2022-12-07T03:34:39;4.50;99.90
16767;DHT22;8501;49.926;8.404;2022-12-07T03:37:18;4.40;99.90
16767;DHT22;8501;49.926;8.404;2022-12-07T03:40:07;4.40;99.90
16767;DHT22;8501;49.926;8.404;2022-12-07T03:42:34;4.40;99.90
16767;DHT22;8501;49.926;8.404;2022-12-07T03:45:01;4.40;99.90
16767;DHT22;8501;49.926;8.404;2022-12-07T03:47:34;4.40;99.90
16767;DHT22;8501;49.926;8.404;2022-12-07T03:52:38;4.40;99.90
16767;DHT22;8501;49.926;8.404;2022-12-07T03:57:37;4.40;99.90
16767;DHT22;8501;49.926;8.404;2022-12-07T04:00:05;4.50;99.90
16767;DHT22;8501;49.926;8.404;2022-12-07T04:02:32;4.50;99.90
16767;DHT22;8501;49.926;8.404;2022-12-07T04:04:58;4.50;99.90
16767;DHT22;8501;49.926;8.404;2022-12-07T04:07:24;4.50;99.90
16767;DHT22;8501;49.926;8.404;2022-12-07T04:09:50;4.50;99.90
16767;DHT22;8501;49.926;8.404;2022-12-07T04:12:15;4.50;99.90
16767;DHT22;8501;49.926;8.404;2022-12-07T04:14:41;4.50;99.90
16767;DHT22;8501;49.926;8.404;2022-12-07T04:17:06;4.50;99.90
16767;DHT22;8501;49.926;8.404;2022-12-07T04:19:33;4.60;99.90
16767;DHT22;8501;49.926;8.404;2022-12-07T04:22:00;4.50;99.90
16767;DHT22;8501;49.926;8.404;2022-12-07T04:24:26;4.50;99.90
16767;DHT22;8501;49.926;8.404;2022-12-07T04:26:52;4.50;99.90
16767;DHT22;8501;49.926;8.404;2022-12-07T04:29:19;4.50;99.90
16767;DHT22;8501;49.926;8.404;2022-12-07T04:31:45;4.60;99.90
16767;DHT22;8501;49.926;8.404;2022-12-07T04:34:11;4.60;99.90
16767;DHT22;8501;49.926;8.404;2022-12-07T04:36:38;4.60;99.90
16767;DHT22;8501;49.926;8.404;2022-12-07T04:39:05;4.60;99.90
16767;DHT22;8501;49.926;8.404;2022-12-07T04:41:32;4.60;99.90
16767;DHT22;8501;49.926;8.404;2022-12-07T04:44:00;4.60;99.90
16767;DHT22;8501;49.926;8.404;2022-12-07T04:46:27;4.60;99.90
16767;DHT22;8501;49.926;8.404;2022-12-07T04:48:53;4.60;99.90
16767;DHT22;8501;49.926;8.404;2022-12-07T04:51:24;4.60;99.90
16767;DHT22;8501;49.926;8.404;2022-12-07T04:53:50;4.60;99.90
16767;DHT22;8501;49.926;8.404;2022-12-07T04:56:17;4.60;99.90
16767;DHT22;8501;49.926;8.404;2022-12-07T04:58:44;4.60;99.90
16767;DHT22;8501;49.926;8.404;2022-12-07T05:01:11;4.60;99.90
16767;DHT22;8501;49.926;8.404;2022-12-07T05:03:37;4.60;99.90
16767;DHT22;8501;49.926;8.404;2022-12-07T05:06:03;4.70;99.90
16767;DHT22;8501;49.926;8.404;2022-12-07T05:08:29;4.60;99.90
16767;DHT22;8501;49.926;8.404;2022-12-07T05:10:55;4.60;99.90
16767;DHT22;8501;49.926;8.404;2022-12-07T05:13:20;4.60;99.90
16767;DHT22;8501;49.926;8.404;2022-12-07T05:15:47;4.60;99.90
16767;DHT22;8501;49.926;8.404;2022-12-07T05:18:13;4.60;99.90
16767;DHT22;8501;49.926;8.404;2022-12-07T05:20:39;4.60;99.90
16767;DHT22;8501;49.926;8.404;2022-12-07T05:23:05;4.60;99.90
16767;DHT22;8501;49.926;8.404;2022-12-07T05:25:31;4.70;99.90
16767;DHT22;8501;49.926;8.404;2022-12-07T05:27:57;4.60;99.90
16767;DHT22;8501;49.926;8.404;2022-12-07T05:30:24;4.70;99.90
16767;DHT22;8501;49.926;8.404;2022-12-07T05:32:49;4.70;99.90
16767;DHT22;8501;49.926;8.404;2022-12-07T05:35:16;4.70;99.90
16767;DHT22;8501;49.926;8.404;2022-12-07T05:37:42;4.70;99.90
16767;DHT22;8501;49.926;8.404;2022-12-07T05:40:08;4.70;99.90
16767;DHT22;8501;49.926;8.404;2022-12-07T05:42:34;4.60;99.90
16767;DHT22;8501;49.926;8.404;2022-12-07T05:44:59;4.60;99.90
16767;DHT22;8501;49.926;8.404;2022-12-07T05:47:25;4.60;99.90
16767;DHT22;8501;49.926;8.404;2022-12-07T05:49:51;4.60;99.90
16767;DHT22;8501;49.926;8.404;2022-12-07T05:52:16;4.60;99.90
16767;DHT22;8501;49.926;8.404;2022-12-07T05:54:42;4.60;99.90
16767;DHT22;8501;49.926;8.404;2022-12-07T05:57:08;4.60;99.90
16767;DHT22;8501;49.926;8.404;2022-12-07T05:59:33;4.60;99.90
16767;DHT22;8501;49.926;8.404;2022-12-07T06:02:04;4.60;99.90
16767;DHT22;8501;49.926;8.404;2022-12-07T06:04:33;4.70;99.90
16767;DHT22;8501;49.926;8.404;2022-12-07T06:07:00;4.70;99.90
16767;DHT22;8501;49.926;8.404;2022-12-07T06:09:27;4.60;99.90
16767;DHT22;8501;49.926;8.404;2022-12-07T06:11:53;4.60;99.90
16767;DHT22;8501;49.926;8.404;2022-12-07T06:14:37;4.60;99.90
16767;DHT22;8501;49.926;8.404;2022-12-07T06:17:04;4.70;99.90
16767;DHT22;8501;49.926;8.404;2022-12-07T06:19:29;4.70;99.90
16767;DHT22;8501;49.926;8.404;2022-12-07T06:21:55;4.70;99.90
16767;DHT22;8501;49.926;8.404;2022-12-07T06:24:21;4.70;99.90
16767;DHT22;8501;49.926;8.404;2022-12-07T06:26:47;4.70;99.90
16767;DHT22;8501;49.926;8.404;2022-12-07T06:29:13;4.70;99.90
16767;DHT22;8501;49.926;8.404;2022-12-07T06:31:39;4.70;99.90
16767;DHT22;8501;49.926;8.404;2022-12-07T06:34:08;4.70;99.90
16767;DHT22;8501;49.926;8.404;2022-12-07T06:36:34;4.70;99.90
16767;DHT22;8501;49.926;8.404;2022-12-07T06:39:00;4.70;99.90
16767;DHT22;8501;49.926;8.404;2022-12-07T06:41:26;4.70;99.90
16767;DHT22;8501;49.926;8.404;2022-12-07T06:43:51;4.70;99.90
16767;DHT22;8501;49.926;8.404;2022-12-07T06:46:17;4.70;99.90
16767;DHT22;8501;49.926;8.404;2022-12-07T06:48:43;4.70;99.90
16767;DHT22;8501;49.926;8.404;2022-12-07T06:51:09;4.70;99.90
16767;DHT22;8501;49.926;8.404;2022-12-07T06:53:36;4.70;99.90
16767;DHT22;8501;49.926;8.404;2022-12-07T06:56:03;4.70;99.90
16767;DHT22;8501;49.926;8.404;2022-12-07T06:58:29;4.70;99.90
16767;DHT22;8501;49.926;8.404;2022-12-07T07:00:54;4.70;99.90
16767;DHT22;8501;49.926;8.404;2022-12-07T07:03:20;4.70;99.90
16767;DHT22;8501;49.926;8.404;2022-12-07T07:05:46;4.70;99.90
16767;DHT22;8501;49.926;8.404;2022-12-07T07:08:12;4.70;99.90
16767;DHT22;8501;49.926;8.404;2022-12-07T07:10:38;4.70;99.90
16767;DHT22;8501;49.926;8.404;2022-12-07T07:13:04;4.70;99.90
16767;DHT22;8501;49.926;8.404;2022-12-07T07:15:30;4.70;99.90
16767;DHT22;8501;49.926;8.404;2022-12-07T07:17:55;4.70;99.90
16767;DHT22;8501;49.926;8.404;2022-12-07T07:20:21;4.70;99.90
16767;DHT22;8501;49.926;8.404;2022-12-07T07:22:47;4.70;99.90
16767;DHT22;8501;49.926;8.404;2022-12-07T07:25:13;4.70;99.90
16767;DHT22;8501;49.926;8.404;2022-12-07T07:27:38;4.70;99.90
16767;DHT22;8501;49.926;8.404;2022-12-07T07:30:05;4.70;99.90
16767;DHT22;8501;49.926;8.404;2022-12-07T07:32:31;4.70;99.90
16767;DHT22;8501;49.926;8.404;2022-12-07T07:34:56;4.70;99.90
16767;DHT22;8501;49.926;8.404;2022-12-07T07:37:22;4.70;99.90
16767;DHT22;8501;49.926;8.404;2022-12-07T07:39:47;4.70;99.90
16767;DHT22;8501;49.926;8.404;2022-12-07T07:42:13;4.70;99.90
16767;DHT22;8501;49.926;8.404;2022-12-07T07:44:38;4.70;99.90
16767;DHT22;8501;49.926;8.404;2022-12-07T07:47:04;4.70;99.90
16767;DHT22;8501;49.926;8.404;2022-12-07T07:49:29;4.70;99.90
16767;DHT22;8501;49.926;8.404;2022-12-07T07:51:55;4.70;99.90
16767;DHT22;8501;49.926;8.404;2022-12-07T07:54:20;4.70;99.90
16767;DHT22;8501;49.926;8.404;2022-12-07T07:56:46;4.70;99.90
16767;DHT22;8501;49.926;8.404;2022-12-07T07:59:11;4.70;99.90
16767;DHT22;8501;49.926;8.404;2022-12-07T08:01:37;4.70;99.90
16767;DHT22;8501;49.926;8.404;2022-12-07T08:04:02;4.70;99.90
16767;DHT22;8501;49.926;8.404;2022-12-07T08:06:28;4.70;99.90
16767;DHT22;8501;49.926;8.404;2022-12-07T08:08:54;4.70;99.90
16767;DHT22;8501;49.926;8.404;2022-12-07T08:11:19;4.70;99.90
16767;DHT22;8501;49.926;8.404;2022-12-07T08:13:45;4.70;99.90
16767;DHT22;8501;49.926;8.404;2022-12-07T08:16:14;4.70;99.90
16767;DHT22;8501;49.926;8.404;2022-12-07T08:18:41;4.70;99.90
16767;DHT22;8501;49.926;8.404;2022-12-07T08:21:11;4.80;99.90
16767;DHT22;8501;49.926;8.404;2022-12-07T08:23:37;4.70;99.90
16767;DHT22;8501;49.926;8.404;2022-12-07T08:26:04;4.80;99.90
16767;DHT22;8501;49.926;8.404;2022-12-07T08:28:31;4.80;99.90
16767;DHT22;8501;49.926;8.404;2022-12-07T08:31:08;4.70;99.90
16767;DHT22;8501;49.926;8.404;2022-12-07T08:33:34;4.80;99.90
16767;DHT22;8501;49.926;8.404;2022-12-07T08:36:06;4.80;99.90
16767;DHT22;8501;49.926;8.404;2022-12-07T08:38:33;4.80;99.90
16767;DHT22;8501;49.926;8.404;2022-12-07T08:40:59;4.80;99.90
16767;DHT22;8501;49.926;8.404;2022-12-07T08:43:25;4.80;99.90
16767;DHT22;8501;49.926;8.404;2022-12-07T08:46:06;4.80;99.90
16767;DHT22;8501;49.926;8.404;2022-12-07T08:48:32;4.80;99.90
16767;DHT22;8501;49.926;8.404;2022-12-07T08:51:01;4.80;99.90
16767;DHT22;8501;49.926;8.404;2022-12-07T08:53:27;4.80;99.90
16767;DHT22;8501;49.926;8.404;2022-12-07T08:55:53;4.80;99.90
16767;DHT22;8501;49.926;8.404;2022-12-07T08:58:19;4.80;99.90
16767;DHT22;8501;49.926;8.404;2022-12-07T09:00:44;4.80;99.90
16767;DHT22;8501;49.926;8.404;2022-12-07T09:03:10;4.70;99.90
16767;DHT22;8501;49.926;8.404;2022-12-07T09:05:35;4.80;99.90
16767;DHT22;8501;49.926;8.404;2022-12-07T09:08:01;4.80;99.90
16767;DHT22;8501;49.926;8.404;2022-12-07T09:10:28;4.90;99.90
16767;DHT22;8501;49.926;8.404;2022-12-07T09:12:54;5.00;99.90
16767;DHT22;8501;49.926;8.404;2022-12-07T09:15:20;5.00;99.90
16767;DHT22;8501;49.926;8.404;2022-12-07T09:17:45;5.00;99.90
16767;DHT22;8501;49.926;8.404;2022-12-07T09:20:11;5.00;99.90
16767;DHT22;8501;49.926;8.404;2022-12-07T09:22:37;5.00;99.90
16767;DHT22;8501;49.926;8.404;2022-12-07T09:25:03;5.00;99.90
16767;DHT22;8501;49.926;8.404;2022-12-07T09:27:29;5.00;99.90
16767;DHT22;8501;49.926;8.404;2022-12-07T09:29:55;5.00;99.90
16767;DHT22;8501;49.926;8.404;2022-12-07T09:32:21;5.00;99.90
16767;DHT22;8501;49.926;8.404;2022-12-07T09:34:46;5.00;99.90
16767;DHT22;8501;49.926;8.404;2022-12-07T09:37:12;5.00;99.90
16767;DHT22;8501;49.926;8.404;2022-12-07T09:39:38;5.00;99.90
16767;DHT22;8501;49.926;8.404;2022-12-07T09:42:05;5.00;99.90
16767;DHT22;8501;49.926;8.404;2022-12-07T09:44:31;5.00;99.90
16767;DHT22;8501;49.926;8.404;2022-12-07T09:46:57;5.00;99.90
16767;DHT22;8501;49.926;8.404;2022-12-07T09:49:25;5.00;99.90
16767;DHT22;8501;49.926;8.404;2022-12-07T09:54:46;5.00;99.90
16767;DHT22;8501;49.926;8.404;2022-12-07T09:57:12;5.00;99.90
16767;DHT22;8501;49.926;8.404;2022-12-07T09:59:39;5.00;99.90
16767;DHT22;8501;49.926;8.404;2022-12-07T10:04:50;5.10;99.90
16767;DHT22;8501;49.926;8.404;2022-12-07T10:07:15;5.10;99.90
16767;DHT22;8501;49.926;8.404;2022-12-07T10:09:41;5.10;99.90
16767;DHT22;8501;49.926;8.404;2022-12-07T10:12:10;5.20;99.90
16767;DHT22;8501;49.926;8.404;2022-12-07T10:14:54;5.20;99.90
16767;DHT22;8501;49.926;8.404;2022-12-07T10:17:34;5.20;99.90
16767;DHT22;8501;49.926;8.404;2022-12-07T10:20:15;5.20;99.90
16767;DHT22;8501;49.926;8.404;2022-12-07T10:25:32;5.20;99.90
16767;DHT22;8501;49.926;8.404;2022-12-07T10:28:01;5.20;99.90
16767;DHT22;8501;49.926;8.404;2022-12-07T10:30:27;5.30;99.90
16767;DHT22;8501;49.926;8.404;2022-12-07T10:32:52;5.20;99.90
16767;DHT22;8501;49.926;8.404;2022-12-07T10:35:19;5.20;99.90
16767;DHT22;8501;49.926;8.404;2022-12-07T10:37:46;5.30;99.90
16767;DHT22;8501;49.926;8.404;2022-12-07T10:40:31;5.30;99.90
16767;DHT22;8501;49.926;8.404;2022-12-07T10:43:18;5.30;99.90
16767;DHT22;8501;49.926;8.404;2022-12-07T10:46:03;5.30;99.90
16767;DHT22;8501;49.926;8.404;2022-12-07T10:54:10;5.40;99.90
16767;DHT22;8501;49.926;8.404;2022-12-07T10:59:47;5.50;99.90
16767;DHT22;8501;49.926;8.404;2022-12-07T11:08:30;5.90;99.90
16767;DHT22;8501;49.926;8.404;2022-12-07T11:11:12;6.00;99.90
16767;DHT22;8501;49.926;8.404;2022-12-07T11:21:56;6.60;99.90
16767;DHT22;8501;49.926;8.404;2022-12-07T11:24:33;6.60;99.90
16767;DHT22;8501;49.926;8.404;2022-12-07T11:37:53;6.40;99.90
16767;DHT22;8501;49.926;8.404;2022-12-07T11:40:27;6.40;99.90
16767;DHT22;8501;49.926;8.404;2022-12-07T11:43:04;6.40;99.90
16767;DHT22;8501;49.926;8.404;2022-12-07T11:45:37;6.50;99.90
16767;DHT22;8501;49.926;8.404;2022-12-07T11:48:15;6.50;99.90
16767;DHT22;8501;49.926;8.404;2022-12-07T11:50:48;6.60;99.90
16767;DHT22;8501;49.926;8.404;2022-12-07T11:53:25;6.70;99.90
16767;DHT22;8501;49.926;8.404;2022-12-07T12:03:45;6.50;99.90
16767;DHT22;8501;49.926;8.404;2022-12-07T12:06:11;6.50;99.90
16767;DHT22;8501;49.926;8.404;2022-12-07T12:08:42;6.50;99.90
16767;DHT22;8501;49.926;8.404;2022-12-07T12:17:11;6.40;99.90
16767;DHT22;8501;49.926;8.404;2022-12-07T12:20:04;6.40;99.90
16767;DHT22;8501;49.926;8.404;2022-12-07T12:22:39;6.40;99.90
16767;DHT22;8501;49.926;8.404;2022-12-07T12:25:21;6.40;99.90
16767;DHT22;8501;49.926;8.404;2022-12-07T12:27:49;6.40;99.90
16767;DHT22;8501;49.926;8.404;2022-12-07T12:30:30;6.40;99.90
16767;DHT22;8501;49.926;8.404;2022-12-07T12:33:14;6.40;99.90
16767;DHT22;8501;49.926;8.404;2022-12-07T12:35:41;6.40;99.90
16767;DHT22;8501;49.926;8.404;2022-12-07T12:38:32;6.40;99.90
16767;DHT22;8501;49.926;8.404;2022-12-07T12:41:00;6.30;99.90
16767;DHT22;8501;49.926;8.404;2022-12-07T12:43:50;6.30;99.90
16767;DHT22;8501;49.926;8.404;2022-12-07T12:49:37;6.30;99.90
16767;DHT22;8501;49.926;8.404;2022-12-07T12:52:46;6.30;99.90
16767;DHT22;8501;49.926;8.404;2022-12-07T12:55:16;6.30;99.90
16767;DHT22;8501;49.926;8.404;2022-12-07T12:57:48;6.40;99.90
16767;DHT22;8501;49.926;8.404;2022-12-07T13:00:32;6.40;99.90
16767;DHT22;8501;49.926;8.404;2022-12-07T13:02:59;6.50;99.90
16767;DHT22;8501;49.926;8.404;2022-12-07T13:05:28;6.50;99.90
16767;DHT22;8501;49.926;8.404;2022-12-07T13:07:57;6.70;99.90
16767;DHT22;8501;49.926;8.404;2022-12-07T13:15:53;6.60;99.90
16767;DHT22;8501;49.926;8.404;2022-12-07T13:31:47;6.70;99.90
16767;DHT22;8501;49.926;8.404;2022-12-07T13:34:34;6.70;99.90
16767;DHT22;8501;49.926;8.404;2022-12-07T13:37:08;6.70;99.90
16767;DHT22;8501;49.926;8.404;2022-12-07T13:39:45;6.70;99.90
16767;DHT22;8501;49.926;8.404;2022-12-07T13:42:33;6.70;99.90
16767;DHT22;8501;49.926;8.404;2022-12-07T13:45:13;6.70;99.90
16767;DHT22;8501;49.926;8.404;2022-12-07T13:47:52;6.60;99.90
16767;DHT22;8501;49.926;8.404;2022-12-07T13:50:25;6.60;99.90
16767;DHT22;8501;49.926;8.404;2022-12-07T13:52:55;6.60;99.90
16767;DHT22;8501;49.926;8.404;2022-12-07T13:55:21;6.60;99.90
16767;DHT22;8501;49.926;8.404;2022-12-07T13:57:50;6.60;99.90
16767;DHT22;8501;49.926;8.404;2022-12-07T14:00:19;6.70;99.90
16767;DHT22;8501;49.926;8.404;2022-12-07T14:05:32;6.70;99.90
16767;DHT22;8501;49.926;8.404;2022-12-07T14:08:00;6.70;99.90
16767;DHT22;8501;49.926;8.404;2022-12-07T14:10:34;6.80;99.90
16767;DHT22;8501;49.926;8.404;2022-12-07T14:13:03;6.80;99.90
16767;DHT22;8501;49.926;8.404;2022-12-07T14:15:44;6.70;99.90
16767;DHT22;8501;49.926;8.404;2022-12-07T14:18:29;6.70;99.90
16767;DHT22;8501;49.926;8.404;2022-12-07T14:21:13;6.60;99.90
16767;DHT22;8501;49.926;8.404;2022-12-07T14:23:40;6.60;99.90
16767;DHT22;8501;49.926;8.404;2022-12-07T14:26:10;6.60;99.90
16767;DHT22;8501;49.926;8.404;2022-12-07T14:28:37;6.60;99.90
16767;DHT22;8501;49.926;8.404;2022-12-07T14:31:07;6.50;99.90
16767;DHT22;8501;49.926;8.404;2022-12-07T14:33:35;6.50;99.90
16767;DHT22;8501;49.926;8.404;2022-12-07T14:36:01;6.50;99.90
16767;DHT22;8501;49.926;8.404;2022-12-07T14:38:26;6.50;99.90
16767;DHT22;8501;49.926;8.404;2022-12-07T14:40:53;6.50;99.90
16767;DHT22;8501;49.926;8.404;2022-12-07T14:43:20;6.50;99.90
16767;DHT22;8501;49.926;8.404;2022-12-07T14:45:46;6.50;99.90
16767;DHT22;8501;49.926;8.404;2022-12-07T14:48:14;6.50;99.90
16767;DHT22;8501;49.926;8.404;2022-12-07T14:50:50;6.50;99.90
16767;DHT22;8501;49.926;8.404;2022-12-07T14:53:17;6.50;99.90
16767;DHT22;8501;49.926;8.404;2022-12-07T14:55:44;6.50;99.90
16767;DHT22;8501;49.926;8.404;2022-12-07T14:58:14;6.50;99.90
16767;DHT22;8501;49.926;8.404;2022-12-07T15:00:40;6.40;99.90
16767;DHT22;8501;49.926;8.404;2022-12-07T15:03:06;6.40;99.90
16767;DHT22;8501;49.926;8.404;2022-12-07T15:05:32;6.40;99.90
16767;DHT22;8501;49.926;8.404;2022-12-07T15:07:58;6.30;99.90
16767;DHT22;8501;49.926;8.404;2022-12-07T15:10:29;6.30;99.90
16767;DHT22;8501;49.926;8.404;2022-12-07T15:13:02;6.30;99.90
16767;DHT22;8501;49.926;8.404;2022-12-07T15:15:47;6.30;99.90
16767;DHT22;8501;49.926;8.404;2022-12-07T15:18:13;6.30;99.90
16767;DHT22;8501;49.926;8.404;2022-12-07T15:20:39;6.30;99.90
16767;DHT22;8501;49.926;8.404;2022-12-07T15:23:05;6.30;99.90
16767;DHT22;8501;49.926;8.404;2022-12-07T15:25:30;6.30;99.90
16767;DHT22;8501;49.926;8.404;2022-12-07T15:27:56;6.20;99.90
16767;DHT22;8501;49.926;8.404;2022-12-07T15:30:22;6.20;99.90
16767;DHT22;8501;49.926;8.404;2022-12-07T15:32:53;6.20;99.90
16767;DHT22;8501;49.926;8.404;2022-12-07T15:35:20;6.20;99.90
16767;DHT22;8501;49.926;8.404;2022-12-07T15:37:46;6.20;99.90
16767;DHT22;8501;49.926;8.404;2022-12-07T15:40:12;6.20;99.90
16767;DHT22;8501;49.926;8.404;2022-12-07T15:42:38;6.20;99.90
16767;DHT22;8501;49.926;8.404;2022-12-07T15:45:05;6.20;99.90
16767;DHT22;8501;49.926;8.404;2022-12-07T15:47:35;6.20;99.90
16767;DHT22;8501;49.926;8.404;2022-12-07T15:50:04;6.20;99.90
16767;DHT22;8501;49.926;8.404;2022-12-07T15:52:30;6.20;99.90
16767;DHT22;8501;49.926;8.404;2022-12-07T15:54:55;6.20;99.90
16767;DHT22;8501;49.926;8.404;2022-12-07T15:57:21;6.20;99.90
16767;DHT22;8501;49.926;8.404;2022-12-07T15:59:47;6.10;99.90
16767;DHT22;8501;49.926;8.404;2022-12-07T16:02:12;6.00;99.90
16767;DHT22;8501;49.926;8.404;2022-12-07T16:04:38;6.00;99.90
16767;DHT22;8501;49.926;8.404;2022-12-07T16:07:04;6.00;99.90
16767;DHT22;8501;49.926;8.404;2022-12-07T16:09:30;6.00;99.90
16767;DHT22;8501;49.926;8.404;2022-12-07T16:11:55;6.00;99.90
16767;DHT22;8501;49.926;8.404;2022-12-07T16:14:21;6.00;99.90
16767;DHT22;8501;49.926;8.404;2022-12-07T16:16:47;6.00;99.90
16767;DHT22;8501;49.926;8.404;2022-12-07T16:19:13;5.90;99.90
16767;DHT22;8501;49.926;8.404;2022-12-07T16:21:39;5.90;99.90
16767;DHT22;8501;49.926;8.404;2022-12-07T16:24:05;5.90;99.90
16767;DHT22;8501;49.926;8.404;2022-12-07T16:26:31;5.90;99.90
16767;DHT22;8501;49.926;8.404;2022-12-07T16:28:57;5.90;99.90
16767;DHT22;8501;49.926;8.404;2022-12-07T16:31:25;5.90;99.90
16767;DHT22;8501;49.926;8.404;2022-12-07T16:33:53;5.80;99.90
16767;DHT22;8501;49.926;8.404;2022-12-07T16:36:20;5.80;99.90
16767;DHT22;8501;49.926;8.404;2022-12-07T16:38:47;5.80;99.90
16767;DHT22;8501;49.926;8.404;2022-12-07T16:41:12;5.70;99.90
16767;DHT22;8501;49.926;8.404;2022-12-07T16:43:38;5.70;99.90
16767;DHT22;8501;49.926;8.404;2022-12-07T16:46:04;5.70;99.90
16767;DHT22;8501;49.926;8.404;2022-12-07T16:48:30;5.70;99.90
16767;DHT22;8501;49.926;8.404;2022-12-07T16:50:55;5.70;99.90
16767;DHT22;8501;49.926;8.404;2022-12-07T16:53:22;5.70;99.90
16767;DHT22;8501;49.926;8.404;2022-12-07T16:55:48;5.60;99.90
16767;DHT22;8501;49.926;8.404;2022-12-07T16:58:15;5.60;99.90
16767;DHT22;8501;49.926;8.404;2022-12-07T17:00:42;5.50;99.90
16767;DHT22;8501;49.926;8.404;2022-12-07T17:03:08;5.60;99.90
16767;DHT22;8501;49.926;8.404;2022-12-07T17:05:41;5.60;99.90
16767;DHT22;8501;49.926;8.404;2022-12-07T17:08:08;5.60;99.90
16767;DHT22;8501;49.926;8.404;2022-12-07T17:10:36;5.50;99.90
16767;DHT22;8501;49.926;8.404;2022-12-07T17:13:04;5.50;99.90
16767;DHT22;8501;49.926;8.404;2022-12-07T17:15:57;5.50;99.90
16767;DHT22;8501;49.926;8.404;2022-12-07T17:18:22;5.40;99.90
16767;DHT22;8501;49.926;8.404;2022-12-07T17:20:48;5.50;99.90
16767;DHT22;8501;49.926;8.404;2022-12-07T17:23:13;5.50;99.90
16767;DHT22;8501;49.926;8.404;2022-12-07T17:25:39;5.50;99.90
16767;DHT22;8501;49.926;8.404;2022-12-07T17:28:04;5.60;99.90
16767;DHT22;8501;49.926;8.404;2022-12-07T17:30:30;5.60;99.90
16767;DHT22;8501;49.926;8.404;2022-12-07T17:32:56;5.50;99.90
16767;DHT22;8501;49.926;8.404;2022-12-07T17:35:22;5.60;99.90
16767;DHT22;8501;49.926;8.404;2022-12-07T17:37:47;5.60;99.90
16767;DHT22;8501;49.926;8.404;2022-12-07T17:40:14;5.70;99.90
16767;DHT22;8501;49.926;8.404;2022-12-07T17:42:40;5.70;99.90
16767;DHT22;8501;49.926;8.404;2022-12-07T17:45:10;5.60;99.90
16767;DHT22;8501;49.926;8.404;2022-12-07T17:47:37;5.70;99.90
16767;DHT22;8501;49.926;8.404;2022-12-07T17:50:04;5.70;99.90
16767;DHT22;8501;49.926;8.404;2022-12-07T17:52:30;5.70;99.90
16767;DHT22;8501;49.926;8.404;2022-12-07T17:55:14;5.60;99.90
16767;DHT22;8501;49.926;8.404;2022-12-07T17:57:40;5.60;99.90
16767;DHT22;8501;49.926;8.404;2022-12-07T18:00:06;5.60;99.90